Time;durP1;ratioP1;P1;durP2;ratioP2;P2;SDS_P1;SDS_P2;PMS_P1;PMS_P2;Temp;Humidity;BMP_temperature;BMP_pressure;BME280_temperature;BME280_humidity;BME280_pressure;Samples;Min_cycle;Max_cycle;Signal;HPM_P1;HPM_P2
2023/12/27 00:00:29;;;;;;;12.63;3.08;;;;;;;;;;4978287;28;20120;-77
2023/12/27 00:02:56;;;;;;;10.55;2.47;;;;;;;;;;4974734;28;20042;-77
2023/12/27 00:05:22;;;;;;;9.07;3.47;;;;;;;;;;4974874;28;20084;-77
2023/12/27 00:07:48;;;;;;;13.45;2.95;;;;;;;;;;4982850;28;20120;-77
2023/12/27 00:10:14;;;;;;;9.63;2.20;;;;;;;;;;4970822;28;20026;-77
2023/12/27 00:12:40;;;;;;;6.93;2.10;;;;;;;;;;4983671;28;20027;-78
2023/12/27 00:15:06;;;;;;;6.78;2.38;;;;;;;;;;4986779;28;20046;-77
2023/12/27 00:17:32;;;;;;;11.60;2.00;;;;;;;;;;4997123;28;20038;-77
2023/12/27 00:19:59;;;;;;;7.47;2.03;;;;;;;;;;4982225;28;20573;-77
2023/12/27 00:22:25;;;;;;;6.93;1.98;;;;;;;;;;4985189;28;20033;-76
2023/12/27 00:24:51;;;;;;;10.75;3.28;;;;;;;;;;4989212;28;20018;-77
2023/12/27 00:27:17;;;;;;;12.05;3.92;;;;;;;;;;4983760;28;20034;-76
2023/12/27 00:29:43;;;;;;;10.80;2.78;;;;;;;;;;4984856;28;20031;-77
2023/12/27 00:32:11;;;;;;;14.45;2.40;;;;;;;;;;4985033;28;20081;-77
2023/12/27 00:34:37;;;;;;;15.50;2.75;;;;;;;;;;4986405;28;20030;-77
2023/12/27 00:37:03;;;;;;;6.15;2.30;;;;;;;;;;4987978;28;20057;-77
2023/12/27 00:39:30;;;;;;;8.38;2.40;;;;;;;;;;4985880;28;20041;-77
2023/12/27 00:41:56;;;;;;;10.18;2.30;;;;;;;;;;4983296;28;20030;-78
2023/12/27 00:44:22;;;;;;;9.60;2.30;;;;;;;;;;4984528;28;20118;-78
2023/12/27 00:46:48;;;;;;;9.73;2.70;;;;;;;;;;4982872;28;20038;-77
2023/12/27 00:49:14;;;;;;;10.35;2.65;;;;;;;;;;4990577;28;20245;-78
2023/12/27 00:51:40;;;;;;;9.48;2.25;;;;;;;;;;4987313;28;20113;-78
2023/12/27 00:54:06;;;;;;;14.85;2.55;;;;;;;;;;4987221;28;20034;-77
2023/12/27 00:56:32;;;;;;;10.43;3.22;;;;;;;;;;4975757;28;20134;-76
2023/12/27 00:58:59;;;;;;;17.63;2.40;;;;;;;;;;4982985;28;20113;-77
2023/12/27 01:01:25;;;;;;;8.73;2.30;;;;;;;;;;4987080;28;20023;-77
2023/12/27 01:03:51;;;;;;;11.23;2.30;;;;;;;;;;4979482;28;20030;-78
2023/12/27 01:06:18;;;;;;;13.43;2.15;;;;;;;;;;4985247;28;20070;-78
2023/12/27 01:08:44;;;;;;;9.10;2.70;;;;;;;;;;4987326;28;20732;-78
2023/12/27 01:11:10;;;;;;;7.15;2.60;;;;;;;;;;4976766;28;20045;-78
2023/12/27 01:13:36;;;;;;;12.07;2.30;;;;;;;;;;4989213;28;20520;-78
2023/12/27 01:16:02;;;;;;;6.30;2.28;;;;;;;;;;4980635;28;20431;-78
2023/12/27 01:18:28;;;;;;;12.25;2.13;;;;;;;;;;4984821;28;20498;-78
2023/12/27 01:20:54;;;;;;;8.27;2.20;;;;;;;;;;4978828;28;20031;-78
2023/12/27 01:23:20;;;;;;;10.90;2.03;;;;;;;;;;4986368;28;20038;-77
2023/12/27 01:25:46;;;;;;;10.57;2.17;;;;;;;;;;4976714;28;20045;-78
2023/12/27 01:28:12;;;;;;;19.42;5.43;;;;;;;;;;4993267;28;20038;-77
2023/12/27 01:30:38;;;;;;;8.20;1.73;;;;;;;;;;4978265;28;20022;-78
2023/12/27 01:33:04;;;;;;;11.23;1.70;;;;;;;;;;4978833;28;20030;-78
2023/12/27 01:35:30;;;;;;;16.33;3.17;;;;;;;;;;4979739;28;20043;-78
2023/12/27 01:37:56;;;;;;;9.95;2.05;;;;;;;;;;4974006;28;20380;-78
2023/12/27 01:40:22;;;;;;;9.00;1.80;;;;;;;;;;4976799;28;20035;-78
2023/12/27 01:42:48;;;;;;;7.50;2.67;;;;;;;;;;4975241;28;20726;-78
2023/12/27 01:45:15;;;;;;;9.23;1.75;;;;;;;;;;4987717;28;20073;-80
2023/12/27 01:47:42;;;;;;;7.20;1.98;;;;;;;;;;4973325;28;20085;-78
2023/12/27 01:50:09;;;;;;;15.10;2.50;;;;;;;;;;4982526;28;20415;-77
2023/12/27 01:52:36;;;;;;;4.68;1.65;;;;;;;;;;4973703;28;20116;-76
2023/12/27 01:55:02;;;;;;;9.57;1.77;;;;;;;;;;4980462;28;20026;-77
2023/12/27 01:57:28;;;;;;;9.40;2.00;;;;;;;;;;4982149;28;20042;-77
2023/12/27 01:59:54;;;;;;;14.63;2.25;;;;;;;;;;4990668;28;20121;-77
2023/12/27 02:02:20;;;;;;;7.43;1.77;;;;;;;;;;4986426;28;20472;-76
2023/12/27 02:04:46;;;;;;;7.10;1.75;;;;;;;;;;4982644;28;20026;-77
2023/12/27 02:07:12;;;;;;;8.02;2.03;;;;;;;;;;4977626;28;20057;-77
2023/12/27 02:09:40;;;;;;;5.55;2.15;;;;;;;;;;4990837;28;20464;-77
2023/12/27 02:12:06;;;;;;;10.35;2.22;;;;;;;;;;4976884;28;20062;-77
2023/12/27 02:14:33;;;;;;;9.90;1.83;;;;;;;;;;4989315;28;20083;-77
2023/12/27 02:17:00;;;;;;;9.65;2.40;;;;;;;;;;4988753;28;20041;-77
2023/12/27 02:19:27;;;;;;;5.72;1.90;;;;;;;;;;4985600;28;20173;-77
2023/12/27 02:21:53;;;;;;;10.00;1.75;;;;;;;;;;4981884;28;20039;-76
2023/12/27 02:24:20;;;;;;;10.15;1.90;;;;;;;;;;4979023;28;20460;-76
2023/12/27 02:26:46;;;;;;;10.68;1.98;;;;;;;;;;4982979;28;20158;-76
2023/12/27 02:29:12;;;;;;;11.57;2.40;;;;;;;;;;4974341;28;20037;-76
2023/12/27 02:31:38;;;;;;;6.03;2.05;;;;;;;;;;4979848;28;20030;-77
2023/12/27 02:34:04;;;;;;;8.50;2.13;;;;;;;;;;4988159;28;20096;-77
2023/12/27 02:36:30;;;;;;;8.93;2.20;;;;;;;;;;4986607;28;20105;-77
2023/12/27 02:38:56;;;;;;;7.45;2.22;;;;;;;;;;4988372;28;20030;-80
2023/12/27 02:41:22;;;;;;;13.27;3.28;;;;;;;;;;4978411;28;20038;-76
2023/12/27 02:43:48;;;;;;;8.73;2.58;;;;;;;;;;4981185;28;20077;-77
2023/12/27 02:46:15;;;;;;;21.27;3.85;;;;;;;;;;4989990;28;20049;-77
2023/12/27 02:48:41;;;;;;;13.45;2.20;;;;;;;;;;4982979;28;20417;-75
2023/12/27 02:51:07;;;;;;;9.65;2.33;;;;;;;;;;4987813;28;20026;-76
2023/12/27 02:53:33;;;;;;;9.70;2.20;;;;;;;;;;4974648;28;20536;-76
2023/12/27 02:55:59;;;;;;;11.10;2.22;;;;;;;;;;4972608;28;20042;-76
2023/12/27 02:58:25;;;;;;;9.27;2.10;;;;;;;;;;4974944;28;20035;-75
2023/12/27 03:00:51;;;;;;;36.95;12.63;;;;;;;;;;4979855;28;20039;-73
2023/12/27 03:03:17;;;;;;;8.13;2.60;;;;;;;;;;4982137;28;20031;-73
2023/12/27 03:05:43;;;;;;;8.38;2.22;;;;;;;;;;4980953;28;20727;-75
2023/12/27 03:08:09;;;;;;;12.55;2.17;;;;;;;;;;4986393;28;20034;-76
2023/12/27 03:10:35;;;;;;;11.10;2.60;;;;;;;;;;4983565;28;20035;-76
2023/12/27 03:13:01;;;;;;;11.63;3.78;;;;;;;;;;4986839;28;20022;-76
2023/12/27 03:15:28;;;;;;;8.68;2.88;;;;;;;;;;4981760;28;20034;-76
2023/12/27 03:17:54;;;;;;;10.63;1.88;;;;;;;;;;4986546;28;20134;-76
2023/12/27 03:20:20;;;;;;;9.82;2.58;;;;;;;;;;4973211;28;20082;-75
2023/12/27 03:22:46;;;;;;;12.48;2.53;;;;;;;;;;4986640;28;20053;-75
2023/12/27 03:25:12;;;;;;;14.73;2.60;;;;;;;;;;4974813;28;20611;-76
2023/12/27 03:27:39;;;;;;;16.80;3.10;;;;;;;;;;4982745;28;20412;-76
2023/12/27 03:30:05;;;;;;;9.43;2.03;;;;;;;;;;4983426;28;20026;-76
2023/12/27 03:32:31;;;;;;;8.65;3.50;;;;;;;;;;4988051;28;20041;-75
2023/12/27 03:34:57;;;;;;;7.78;2.05;;;;;;;;;;4979367;28;20030;-75
2023/12/27 03:37:23;;;;;;;10.00;2.17;;;;;;;;;;4973461;28;20105;-76
2023/12/27 03:39:51;;;;;;;46.80;25.42;;;;;;;;;;4974464;28;20069;-77
2023/12/27 03:42:19;;;;;;;15.10;2.97;;;;;;;;;;4985784;28;20034;-73
2023/12/27 03:44:46;;;;;;;124.93;68.40;;;;;;;;;;4987668;28;20030;-78
2023/12/27 03:47:12;;;;;;;19.52;8.48;;;;;;;;;;4985638;28;20497;-78
2023/12/27 03:49:38;;;;;;;20.60;6.50;;;;;;;;;;4972523;28;20027;-77
2023/12/27 03:52:04;;;;;;;16.02;5.13;;;;;;;;;;4976063;28;20106;-78
2023/12/27 03:54:30;;;;;;;17.38;5.07;;;;;;;;;;4978565;28;20065;-77
2023/12/27 03:56:56;;;;;;;14.52;4.22;;;;;;;;;;4986844;28;20074;-78
2023/12/27 03:59:22;;;;;;;10.68;2.50;;;;;;;;;;4981834;28;20034;-76
2023/12/27 04:01:48;;;;;;;17.05;3.03;;;;;;;;;;4977130;28;20042;-78
2023/12/27 04:04:15;;;;;;;12.23;2.70;;;;;;;;;;4977825;28;20110;-78
2023/12/27 04:06:41;;;;;;;20.52;3.75;;;;;;;;;;4979796;28;20096;-79
2023/12/27 04:09:07;;;;;;;11.98;3.03;;;;;;;;;;4982754;28;20023;-78
2023/12/27 04:11:34;;;;;;;12.20;3.47;;;;;;;;;;4989615;28;20030;-76
2023/12/27 04:14:00;;;;;;;16.77;3.50;;;;;;;;;;4991003;28;20034;-76
2023/12/27 04:16:26;;;;;;;10.70;3.28;;;;;;;;;;4976723;28;20117;-75
2023/12/27 04:18:52;;;;;;;9.68;2.60;;;;;;;;;;4989806;28;20041;-76
2023/12/27 04:21:20;;;;;;;11.57;2.72;;;;;;;;;;4971075;28;20034;-76
2023/12/27 04:23:46;;;;;;;10.98;3.33;;;;;;;;;;4972837;28;20041;-76
2023/12/27 04:26:12;;;;;;;19.17;2.80;;;;;;;;;;4977417;28;20045;-75
2023/12/27 04:28:38;;;;;;;9.90;2.90;;;;;;;;;;4972916;28;20026;-75
2023/12/27 04:31:04;;;;;;;11.65;3.10;;;;;;;;;;4983446;28;20613;-77
2023/12/27 04:33:30;;;;;;;15.20;4.03;;;;;;;;;;4970436;28;20516;-75
2023/12/27 04:35:56;;;;;;;13.30;3.25;;;;;;;;;;4974046;28;20043;-75
2023/12/27 04:38:22;;;;;;;12.73;2.67;;;;;;;;;;4978090;28;20042;-76
2023/12/27 04:40:48;;;;;;;14.65;3.45;;;;;;;;;;4982097;28;20060;-76
2023/12/27 04:43:14;;;;;;;12.02;3.10;;;;;;;;;;4970698;28;20109;-76
2023/12/27 04:45:40;;;;;;;13.63;4.07;;;;;;;;;;4979692;28;20436;-76
2023/12/27 04:48:07;;;;;;;9.57;2.67;;;;;;;;;;4973452;28;20026;-76
2023/12/27 04:50:33;;;;;;;14.80;3.20;;;;;;;;;;4985302;28;20488;-75
2023/12/27 04:52:59;;;;;;;11.57;3.47;;;;;;;;;;4972247;28;20043;-76
2023/12/27 04:55:25;;;;;;;14.45;3.25;;;;;;;;;;4973286;28;20425;-76
2023/12/27 04:57:51;;;;;;;11.85;3.70;;;;;;;;;;4980895;28;20362;-76
2023/12/27 05:00:17;;;;;;;13.00;3.60;;;;;;;;;;4983325;28;20476;-76
2023/12/27 05:02:43;;;;;;;13.38;3.97;;;;;;;;;;4989005;28;20031;-76
2023/12/27 05:05:09;;;;;;;18.15;5.18;;;;;;;;;;4993575;28;20053;-77
2023/12/27 05:07:35;;;;;;;13.43;3.58;;;;;;;;;;4984967;28;20081;-77
2023/12/27 05:10:01;;;;;;;16.52;3.28;;;;;;;;;;4989265;28;20038;-77
2023/12/27 05:12:27;;;;;;;15.48;3.47;;;;;;;;;;4987705;28;20037;-76
2023/12/27 05:14:54;;;;;;;14.13;2.95;;;;;;;;;;4994212;28;20062;-76
2023/12/27 05:17:22;;;;;;;9.57;2.88;;;;;;;;;;4985990;28;20138;-77
2023/12/27 05:19:48;;;;;;;20.02;4.15;;;;;;;;;;4974310;28;20033;-77
2023/12/27 05:22:14;;;;;;;15.80;3.22;;;;;;;;;;4978508;28;20034;-76
2023/12/27 05:24:42;;;;;;;14.50;3.80;;;;;;;;;;4978448;28;20026;-76
2023/12/27 05:27:08;;;;;;;13.30;3.70;;;;;;;;;;4983932;28;20447;-76
2023/12/27 05:29:34;;;;;;;17.35;4.47;;;;;;;;;;4976328;28;20480;-76
2023/12/27 05:32:01;;;;;;;19.52;4.22;;;;;;;;;;4984828;28;20113;-76
2023/12/27 05:34:27;;;;;;;18.75;4.22;;;;;;;;;;4985301;28;20417;-76
2023/12/27 05:36:53;;;;;;;18.05;5.35;;;;;;;;;;5008169;28;20030;-76
2023/12/27 05:39:19;;;;;;;19.50;3.45;;;;;;;;;;4977925;28;20053;-77
2023/12/27 05:41:45;;;;;;;20.48;4.57;;;;;;;;;;4992517;28;20038;-77
2023/12/27 05:44:11;;;;;;;20.63;3.70;;;;;;;;;;4984655;28;20033;-77
2023/12/27 05:46:37;;;;;;;17.10;3.50;;;;;;;;;;4986258;28;20038;-77
2023/12/27 05:49:03;;;;;;;15.88;4.10;;;;;;;;;;4976604;28;20030;-77
2023/12/27 05:51:29;;;;;;;19.98;3.70;;;;;;;;;;4978083;28;20030;-76
2023/12/27 05:53:56;;;;;;;13.80;4.55;;;;;;;;;;4989570;28;20031;-77
2023/12/27 05:56:22;;;;;;;16.90;5.38;;;;;;;;;;4987015;28;20036;-76
2023/12/27 05:58:48;;;;;;;12.43;3.55;;;;;;;;;;4984842;28;20047;-77
2023/12/27 06:01:14;;;;;;;18.02;4.55;;;;;;;;;;4990560;28;20030;-76
2023/12/27 06:03:40;;;;;;;17.90;4.15;;;;;;;;;;4985552;28;20035;-76
2023/12/27 06:06:06;;;;;;;18.45;3.85;;;;;;;;;;4972989;28;20047;-76
2023/12/27 06:08:32;;;;;;;20.80;4.07;;;;;;;;;;4981149;28;20077;-77
2023/12/27 06:10:59;;;;;;;12.57;4.25;;;;;;;;;;4978162;28;20030;-76
2023/12/27 06:13:25;;;;;;;19.77;3.78;;;;;;;;;;4977433;28;20033;-76
2023/12/27 06:15:51;;;;;;;14.65;3.08;;;;;;;;;;4982400;28;20046;-76
2023/12/27 06:18:17;;;;;;;17.92;4.68;;;;;;;;;;4978022;28;20165;-76
2023/12/27 06:20:43;;;;;;;12.43;3.35;;;;;;;;;;4977942;28;20057;-76
2023/12/27 06:23:09;;;;;;;10.98;3.35;;;;;;;;;;4973597;28;20026;-76
2023/12/27 06:25:35;;;;;;;23.10;3.80;;;;;;;;;;4972832;28;20042;-76
2023/12/27 06:28:03;;;;;;;25.85;4.43;;;;;;;;;;4972912;28;20062;-76
2023/12/27 06:30:29;;;;;;;23.90;3.72;;;;;;;;;;4978763;28;20022;-75
2023/12/27 06:32:55;;;;;;;11.43;3.65;;;;;;;;;;4992778;28;20038;-75
2023/12/27 06:35:21;;;;;;;17.45;3.25;;;;;;;;;;4985841;28;20634;-77
2023/12/27 06:37:47;;;;;;;15.50;3.33;;;;;;;;;;4973316;28;20713;-77
2023/12/27 06:40:13;;;;;;;13.85;3.67;;;;;;;;;;4972797;28;20030;-77
2023/12/27 06:42:39;;;;;;;14.05;3.40;;;;;;;;;;4980526;28;20042;-77
2023/12/27 06:45:06;;;;;;;11.38;3.35;;;;;;;;;;4982654;28;20030;-77
2023/12/27 06:47:32;;;;;;;12.30;3.03;;;;;;;;;;4983674;28;20038;-77
2023/12/27 06:49:58;;;;;;;17.45;3.78;;;;;;;;;;4981907;28;20077;-77
2023/12/27 06:52:24;;;;;;;15.50;3.55;;;;;;;;;;4989352;28;20026;-77
2023/12/27 06:54:50;;;;;;;20.35;2.75;;;;;;;;;;4989948;28;20022;-77
2023/12/27 06:57:16;;;;;;;12.63;2.70;;;;;;;;;;4989134;28;20069;-77
2023/12/27 06:59:42;;;;;;;16.90;3.72;;;;;;;;;;4979405;28;20030;-77
2023/12/27 07:02:08;;;;;;;14.73;3.42;;;;;;;;;;4981463;28;20022;-78
2023/12/27 07:04:34;;;;;;;13.68;4.05;;;;;;;;;;4983135;28;20049;-79
2023/12/27 07:07:00;;;;;;;14.20;3.35;;;;;;;;;;4986175;28;20145;-78
2023/12/27 07:09:26;;;;;;;14.55;3.17;;;;;;;;;;4983927;28;20054;-78
2023/12/27 07:11:52;;;;;;;22.38;3.65;;;;;;;;;;4975219;28;20037;-78
2023/12/27 07:14:19;;;;;;;12.93;3.47;;;;;;;;;;4991440;28;20041;-78
2023/12/27 07:16:45;;;;;;;14.70;2.88;;;;;;;;;;4981051;28;20070;-78
2023/12/27 07:19:11;;;;;;;25.30;5.13;;;;;;;;;;4986273;28;20035;-78
2023/12/27 07:21:37;;;;;;;22.77;3.63;;;;;;;;;;4982206;28;20402;-77
2023/12/27 07:24:04;;;;;;;15.00;4.03;;;;;;;;;;4972326;28;20045;-78
2023/12/27 07:26:30;;;;;;;18.38;3.53;;;;;;;;;;4982574;28;20504;-77
2023/12/27 07:28:56;;;;;;;15.82;3.70;;;;;;;;;;4982999;28;20477;-77
2023/12/27 07:31:22;;;;;;;20.17;3.78;;;;;;;;;;4980740;28;20456;-77
2023/12/27 07:33:49;;;;;;;26.85;6.38;;;;;;;;;;4985400;28;20116;-76
2023/12/27 07:36:15;;;;;;;21.92;6.57;;;;;;;;;;4980157;28;20413;-76
2023/12/27 07:38:41;;;;;;;14.82;4.05;;;;;;;;;;4990212;28;20026;-79
2023/12/27 07:41:07;;;;;;;17.83;4.32;;;;;;;;;;4989975;28;20449;-77
2023/12/27 07:43:35;;;;;;;16.30;3.47;;;;;;;;;;4986411;28;20034;-76
2023/12/27 07:46:01;;;;;;;22.30;3.70;;;;;;;;;;4990940;28;20030;-78
2023/12/27 07:48:28;;;;;;;15.27;3.55;;;;;;;;;;4989093;28;20062;-77
2023/12/27 07:50:55;;;;;;;19.20;2.97;;;;;;;;;;4990991;28;20357;-78
2023/12/27 07:53:21;;;;;;;21.55;3.20;;;;;;;;;;4990468;28;20542;-76
2023/12/27 07:55:48;;;;;;;26.40;7.70;;;;;;;;;;4990650;28;20034;-77
2023/12/27 07:58:14;;;;;;;22.02;5.15;;;;;;;;;;4984032;28;20035;-75
2023/12/27 08:00:40;;;;;;;18.50;4.07;;;;;;;;;;4987953;28;20026;-78
2023/12/27 08:03:08;;;;;;;14.65;2.88;;;;;;;;;;4984742;28;20401;-77
2023/12/27 08:05:35;;;;;;;20.38;3.63;;;;;;;;;;4989522;28;20058;-81
2023/12/27 08:08:02;;;;;;;16.55;3.47;;;;;;;;;;4990490;28;20014;-77
2023/12/27 08:10:28;;;;;;;17.48;2.95;;;;;;;;;;4997534;28;20379;-76
2023/12/27 08:12:54;;;;;;;18.10;5.10;;;;;;;;;;4986291;28;20037;-76
2023/12/27 08:15:20;;;;;;;12.68;2.80;;;;;;;;;;4978175;28;20057;-76
2023/12/27 08:17:46;;;;;;;13.40;3.25;;;;;;;;;;4977306;28;20054;-76
2023/12/27 08:20:12;;;;;;;12.57;3.58;;;;;;;;;;4978375;28;20014;-75
2023/12/27 08:22:38;;;;;;;22.73;4.70;;;;;;;;;;4975746;28;20026;-75
2023/12/27 08:25:08;;;;;;;15.57;3.65;;;;;;;;;;4978473;28;20033;-74
2023/12/27 08:27:36;;;;;;;22.15;3.55;;;;;;;;;;4980477;28;20057;-75
2023/12/27 08:30:04;;;;;;;13.30;2.97;;;;;;;;;;4986081;28;20097;-75
2023/12/27 08:32:30;;;;;;;15.98;3.47;;;;;;;;;;4977256;28;20037;-76
2023/12/27 08:34:56;;;;;;;11.55;3.20;;;;;;;;;;4986607;28;20132;-76
2023/12/27 08:37:22;;;;;;;13.77;2.80;;;;;;;;;;4975904;28;20516;-77
2023/12/27 08:39:48;;;;;;;23.17;3.75;;;;;;;;;;4977901;28;20026;-75
2023/12/27 08:42:14;;;;;;;12.93;4.40;;;;;;;;;;4971632;28;20026;-79
2023/12/27 08:44:40;;;;;;;9.88;3.22;;;;;;;;;;4987650;28;20361;-77
2023/12/27 08:47:06;;;;;;;9.52;2.75;;;;;;;;;;4985402;28;20045;-76
2023/12/27 08:49:32;;;;;;;8.48;2.70;;;;;;;;;;4988022;28;20072;-76
2023/12/27 08:51:58;;;;;;;12.02;2.92;;;;;;;;;;4988488;28;20030;-76
2023/12/27 08:54:25;;;;;;;17.00;3.00;;;;;;;;;;4985806;28;20049;-76
2023/12/27 08:56:51;;;;;;;20.77;4.22;;;;;;;;;;4983927;28;20514;-77
2023/12/27 08:59:18;;;;;;;12.15;3.28;;;;;;;;;;4988663;28;20034;-77
2023/12/27 09:01:44;;;;;;;13.57;3.17;;;;;;;;;;4984631;28;20476;-77
2023/12/27 09:04:10;;;;;;;19.73;3.20;;;;;;;;;;4988826;28;20170;-77
2023/12/27 09:06:36;;;;;;;12.40;3.13;;;;;;;;;;4989247;28;20086;-78
2023/12/27 09:09:02;;;;;;;13.02;3.50;;;;;;;;;;4989945;28;20588;-78
2023/12/27 09:11:29;;;;;;;11.48;3.00;;;;;;;;;;4973117;28;20043;-77
2023/12/27 09:13:55;;;;;;;13.98;3.28;;;;;;;;;;4970603;28;20106;-77
2023/12/27 09:16:21;;;;;;;15.70;3.45;;;;;;;;;;4980987;28;20030;-76
2023/12/27 09:18:47;;;;;;;23.67;5.10;;;;;;;;;;4989321;28;20466;-77
2023/12/27 09:21:13;;;;;;;13.40;4.97;;;;;;;;;;4978223;28;20151;-77
2023/12/27 09:23:41;;;;;;;19.55;5.32;;;;;;;;;;4972870;28;20022;-76
2023/12/27 09:26:13;;;;;;;18.02;4.95;;;;;;;;;;4983380;28;20031;-76
2023/12/27 09:28:39;;;;;;;25.45;4.88;;;;;;;;;;4989360;28;20080;-77
2023/12/27 09:31:05;;;;;;;17.23;6.18;;;;;;;;;;4981637;28;20419;-76
2023/12/27 09:33:31;;;;;;;15.38;3.95;;;;;;;;;;4970588;28;20397;-76
2023/12/27 09:35:58;;;;;;;15.10;4.15;;;;;;;;;;4986643;28;20566;-76
2023/12/27 09:38:24;;;;;;;16.92;5.32;;;;;;;;;;4986046;28;20074;-76
2023/12/27 09:40:50;;;;;;;16.27;5.63;;;;;;;;;;4989991;28;20030;-77
2023/12/27 09:43:17;;;;;;;22.02;4.72;;;;;;;;;;4993486;28;20380;-77
2023/12/27 09:45:43;;;;;;;13.77;4.45;;;;;;;;;;4992317;28;20035;-79
2023/12/27 09:48:11;;;;;;;17.70;4.80;;;;;;;;;;4992540;28;20034;-79
2023/12/27 09:50:38;;;;;;;25.50;4.90;;;;;;;;;;4990795;28;20427;-79
2023/12/27 09:53:05;;;;;;;12.50;4.82;;;;;;;;;;4978187;28;20034;-79
2023/12/27 09:55:32;;;;;;;11.43;5.38;;;;;;;;;;4988153;28;20113;-78
2023/12/27 09:57:58;;;;;;;19.63;5.78;;;;;;;;;;4991951;28;20488;-78
2023/12/27 10:00:30;;;;;;;16.27;5.28;;;;;;;;;;4990851;28;20046;-79
2023/12/27 10:02:58;;;;;;;19.50;5.88;;;;;;;;;;4989749;28;20110;-76
2023/12/27 10:05:31;;;;;;;18.00;5.63;;;;;;;;;;4993159;28;20054;-76
2023/12/27 10:07:57;;;;;;;17.63;5.55;;;;;;;;;;4992735;28;20050;-77
2023/12/27 10:10:26;;;;;;;19.00;6.47;;;;;;;;;;4994038;28;20034;-76
2023/12/27 10:12:52;;;;;;;17.27;6.28;;;;;;;;;;4982924;28;20037;-76
2023/12/27 10:15:18;;;;;;;11.73;5.57;;;;;;;;;;4978137;28;20022;-78
2023/12/27 10:17:44;;;;;;;14.77;5.93;;;;;;;;;;4972915;28;20158;-78
2023/12/27 10:20:11;;;;;;;20.05;6.88;;;;;;;;;;4983533;28;20057;-78
2023/12/27 10:22:37;;;;;;;18.92;6.53;;;;;;;;;;4992300;28;20435;-78
2023/12/27 10:25:03;;;;;;;24.52;8.25;;;;;;;;;;4985390;28;20117;-76
2023/12/27 10:27:30;;;;;;;24.88;7.15;;;;;;;;;;4975364;28;20038;-78
2023/12/27 10:29:56;;;;;;;24.17;6.72;;;;;;;;;;4984399;28;20034;-76
2023/12/27 10:32:25;;;;;;;17.17;6.05;;;;;;;;;;4985046;28;20037;-75
2023/12/27 10:34:51;;;;;;;19.60;7.65;;;;;;;;;;4983367;28;20043;-78
2023/12/27 10:37:17;;;;;;;22.20;7.88;;;;;;;;;;4981981;28;20039;-78
2023/12/27 10:39:44;;;;;;;21.00;8.70;;;;;;;;;;4973082;28;20043;-79
2023/12/27 10:42:12;;;;;;;22.70;8.82;;;;;;;;;;4976396;28;20022;-77
2023/12/27 10:44:38;;;;;;;19.20;6.68;;;;;;;;;;4983843;28;20030;-76
2023/12/27 10:47:05;;;;;;;27.75;8.15;;;;;;;;;;5005146;28;20427;-76
2023/12/27 10:49:33;;;;;;;16.02;7.10;;;;;;;;;;4992338;28;20049;-76
2023/12/27 10:52:00;;;;;;;21.45;8.50;;;;;;;;;;4989096;28;20058;-76
2023/12/27 10:54:26;;;;;;;23.10;7.38;;;;;;;;;;4991344;28;20092;-76
2023/12/27 10:56:54;;;;;;;27.05;8.43;;;;;;;;;;4992268;28;20166;-75
2023/12/27 10:59:20;;;;;;;17.35;6.80;;;;;;;;;;4981979;28;20473;-76
2023/12/27 11:01:46;;;;;;;20.77;8.43;;;;;;;;;;4985691;28;20048;-76
2023/12/27 11:04:15;;;;;;;20.50;9.07;;;;;;;;;;4972428;28;20045;-77
2023/12/27 11:06:41;;;;;;;19.17;8.02;;;;;;;;;;4984648;28;20132;-76
2023/12/27 11:09:09;;;;;;;25.60;9.13;;;;;;;;;;4992237;28;20056;-77
2023/12/27 11:11:38;;;;;;;29.85;9.50;;;;;;;;;;5005611;28;20030;-76
2023/12/27 11:14:05;;;;;;;20.65;10.07;;;;;;;;;;4972654;28;20491;-75
2023/12/27 11:16:35;;;;;;;22.83;9.13;;;;;;;;;;4977882;28;20035;-75
2023/12/27 11:19:06;;;;;;;29.27;11.07;;;;;;;;;;4991535;28;20987;-75
2023/12/27 11:21:35;;;;;;;23.75;9.65;;;;;;;;;;4986956;28;20488;-78
2023/12/27 11:24:04;;;;;;;27.75;10.35;;;;;;;;;;4989185;28;20463;-75
2023/12/27 11:26:36;;;;;;;24.02;11.05;;;;;;;;;;4993876;28;20107;-75
2023/12/27 11:29:07;;;;;;;24.38;11.38;;;;;;;;;;4992989;28;20030;-77
2023/12/27 11:31:33;;;;;;;19.60;10.13;;;;;;;;;;4989427;28;20478;-77
2023/12/27 11:34:00;;;;;;;29.55;12.23;;;;;;;;;;4982400;28;20251;-76
2023/12/27 11:36:26;;;;;;;23.88;11.50;;;;;;;;;;4991603;28;20042;-76
2023/12/27 11:38:54;;;;;;;33.33;12.13;;;;;;;;;;4983961;28;20523;-76
2023/12/27 11:41:20;;;;;;;21.80;12.52;;;;;;;;;;4988723;28;20097;-77
2023/12/27 11:43:56;;;;;;;26.83;13.93;;;;;;;;;;4988369;28;20049;-76
2023/12/27 11:46:27;;;;;;;34.30;12.77;;;;;;;;;;4982777;28;20431;-76
2023/12/27 11:48:54;;;;;;;28.30;11.98;;;;;;;;;;4978514;28;20080;-75
2023/12/27 11:51:25;;;;;;;24.88;11.98;;;;;;;;;;4991455;28;20098;-77
2023/12/27 11:53:52;;;;;;;24.98;13.50;;;;;;;;;;4989852;28;20387;-77
2023/12/27 11:56:19;;;;;;;22.42;12.60;;;;;;;;;;4988838;28;20066;-77
2023/12/27 11:58:46;;;;;;;18.10;11.77;;;;;;;;;;4971966;28;20142;-77
2023/12/27 12:01:24;;;;;;;20.33;12.68;;;;;;;;;;4987267;28;20022;-77
2023/12/27 12:03:56;;;;;;;26.80;13.50;;;;;;;;;;4971190;28;20035;-77
2023/12/27 12:06:22;;;;;;;17.77;10.65;;;;;;;;;;4974874;28;20039;-77
2023/12/27 12:08:48;;;;;;;17.48;12.25;;;;;;;;;;4990174;28;20437;-77
2023/12/27 12:11:15;;;;;;;24.15;13.38;;;;;;;;;;4988422;28;20169;-77
2023/12/27 12:13:41;;;;;;;23.10;11.35;;;;;;;;;;4984238;28;20491;-77
2023/12/27 12:16:08;;;;;;;17.10;11.13;;;;;;;;;;4979252;28;20038;-78
2023/12/27 12:18:42;;;;;;;20.55;12.10;;;;;;;;;;4977387;28;20033;-78
2023/12/27 12:21:10;;;;;;;27.42;12.43;;;;;;;;;;4972455;28;20121;-78
2023/12/27 12:23:36;;;;;;;23.48;13.93;;;;;;;;;;4982210;28;20035;-78
2023/12/27 12:26:03;;;;;;;21.15;13.65;;;;;;;;;;4971298;28;20480;-78
2023/12/27 12:28:29;;;;;;;20.33;11.93;;;;;;;;;;4986159;28;20034;-77
2023/12/27 12:30:59;;;;;;;25.38;14.07;;;;;;;;;;4977281;28;20042;-77
2023/12/27 12:33:25;;;;;;;20.25;14.73;;;;;;;;;;4988839;28;20073;-78
2023/12/27 12:35:52;;;;;;;24.17;13.80;;;;;;;;;;4988930;28;20038;-78
2023/12/27 12:38:19;;;;;;;23.42;14.07;;;;;;;;;;4987647;28;20034;-77
2023/12/27 12:40:45;;;;;;;23.50;13.88;;;;;;;;;;4990100;28;20049;-77
2023/12/27 12:43:13;;;;;;;24.20;15.55;;;;;;;;;;4983646;28;20027;-78
2023/12/27 12:45:39;;;;;;;25.83;15.75;;;;;;;;;;4986141;28;20598;-78
2023/12/27 12:48:05;;;;;;;22.15;15.73;;;;;;;;;;4985713;28;20085;-77
2023/12/27 12:50:31;;;;;;;26.05;16.60;;;;;;;;;;4990638;28;20105;-77
2023/12/27 12:52:57;;;;;;;28.27;16.30;;;;;;;;;;4989327;28;20045;-77
2023/12/27 12:55:28;;;;;;;28.33;16.67;;;;;;;;;;4988538;28;20500;-77
2023/12/27 12:57:56;;;;;;;30.00;16.55;;;;;;;;;;4978426;28;20125;-77
2023/12/27 13:00:23;;;;;;;31.33;17.77;;;;;;;;;;4974991;28;20066;-77
2023/12/27 13:02:49;;;;;;;32.17;17.73;;;;;;;;;;4989296;28;20540;-77
2023/12/27 13:05:15;;;;;;;29.70;17.38;;;;;;;;;;4987349;28;20058;-78
2023/12/27 13:07:42;;;;;;;29.42;19.48;;;;;;;;;;4989711;28;20030;-77
2023/12/27 13:10:12;;;;;;;30.95;18.75;;;;;;;;;;4976728;28;20158;-77
2023/12/27 13:12:39;;;;;;;32.13;18.30;;;;;;;;;;4977388;28;20031;-77
2023/12/27 13:15:05;;;;;;;29.85;19.30;;;;;;;;;;4987166;28;20027;-76
2023/12/27 13:17:31;;;;;;;30.67;20.20;;;;;;;;;;4988977;28;20073;-77
2023/12/27 13:19:57;;;;;;;27.55;18.75;;;;;;;;;;4992867;28;20045;-77
2023/12/27 13:22:23;;;;;;;33.88;19.58;;;;;;;;;;4990761;28;20093;-76
2023/12/27 13:24:49;;;;;;;34.03;20.00;;;;;;;;;;4993852;28;20022;-76
2023/12/27 13:27:15;;;;;;;32.13;19.85;;;;;;;;;;4979452;28;20035;-76
2023/12/27 13:29:42;;;;;;;35.38;21.50;;;;;;;;;;4987816;28;20397;-77
2023/12/27 13:32:08;;;;;;;33.25;21.27;;;;;;;;;;4990511;28;20037;-76
2023/12/27 13:34:34;;;;;;;31.35;19.48;;;;;;;;;;4975870;28;20030;-77
2023/12/27 13:37:00;;;;;;;36.85;20.73;;;;;;;;;;4991431;28;20034;-77
2023/12/27 13:39:26;;;;;;;40.67;22.50;;;;;;;;;;4982240;28;20038;-76
2023/12/27 13:41:54;;;;;;;30.52;21.75;;;;;;;;;;4993675;28;20089;-76
2023/12/27 13:44:20;;;;;;;35.60;21.65;;;;;;;;;;4991240;28;20492;-77
2023/12/27 13:46:46;;;;;;;32.45;20.38;;;;;;;;;;4993051;28;20059;-78
2023/12/27 13:49:13;;;;;;;37.65;23.45;;;;;;;;;;4989921;28;20026;-76
2023/12/27 13:51:39;;;;;;;37.15;23.20;;;;;;;;;;4973657;28;20126;-77
2023/12/27 13:54:07;;;;;;;29.38;21.27;;;;;;;;;;4992658;28;20085;-77
2023/12/27 13:56:33;;;;;;;42.42;22.83;;;;;;;;;;4992751;28;20038;-76
2023/12/27 13:58:59;;;;;;;32.70;22.30;;;;;;;;;;4993243;28;20097;-77
2023/12/27 14:01:25;;;;;;;40.70;23.70;;;;;;;;;;4989667;28;20026;-76
2023/12/27 14:03:51;;;;;;;30.75;21.95;;;;;;;;;;4973896;28;20659;-77
2023/12/27 14:06:17;;;;;;;34.60;20.45;;;;;;;;;;4980894;28;20076;-77
2023/12/27 14:08:43;;;;;;;28.65;21.15;;;;;;;;;;4997650;28;20026;-77
2023/12/27 14:11:09;;;;;;;36.17;22.95;;;;;;;;;;4992129;28;20030;-76
2023/12/27 14:13:36;;;;;;;26.65;18.90;;;;;;;;;;4991639;28;20026;-77
2023/12/27 14:16:03;;;;;;;31.88;17.95;;;;;;;;;;4991995;28;20042;-75
2023/12/27 14:18:29;;;;;;;30.35;18.75;;;;;;;;;;4977631;28;20034;-76
2023/12/27 14:20:55;;;;;;;28.35;18.50;;;;;;;;;;4982457;28;20022;-75
2023/12/27 14:23:21;;;;;;;38.08;20.95;;;;;;;;;;4973607;28;20041;-76